Time;durP1;ratioP1;P1;durP2;ratioP2;P2;SDS_P1;SDS_P2;PMS_P1;PMS_P2;Temp;Humidity;BMP_temperature;BMP_pressure;BME280_temperature;BME280_humidity;BME280_pressure;Samples;Min_cycle;Max_cycle;Signal;HPM_P1;HPM_P2
2022/07/12 00:00:18;;;;;;;4.10;2.73;;;16.30;99.90;;;;;;5128368;27;20191;-87
2022/07/12 00:02:45;;;;;;;3.37;2.63;;;16.30;99.90;;;;;;5127636;27;20300;-86
2022/07/12 00:05:12;;;;;;;2.90;2.70;;;16.20;99.90;;;;;;5122402;27;20210;-85
2022/07/12 00:07:39;;;;;;;2.60;2.40;;;16.20;99.90;;;;;;5101583;27;20211;-86
2022/07/12 00:10:09;;;;;;;3.03;2.83;;;16.20;99.90;;;;;;5119346;27;20195;-86
2022/07/12 00:12:36;;;;;;;3.73;3.30;;;16.20;99.90;;;;;;5106786;27;20238;-86
2022/07/12 00:15:03;;;;;;;4.30;3.20;;;16.10;99.90;;;;;;5103323;27;20202;-85
2022/07/12 00:17:30;;;;;;;4.10;3.43;;;16.20;99.90;;;;;;5124362;27;20283;-84
2022/07/12 00:19:57;;;;;;;3.90;3.60;;;16.10;99.90;;;;;;5107318;28;20222;-83
2022/07/12 00:22:28;;;;;;;5.70;3.70;;;16.10;99.90;;;;;;5106709;27;20718;-85
2022/07/12 00:24:55;;;;;;;4.17;3.77;;;16.00;99.90;;;;;;5109965;27;20305;-86
2022/07/12 00:27:25;;;;;;;4.83;4.33;;;15.90;99.90;;;;;;5120067;27;20202;-85
2022/07/12 00:29:52;;;;;;;3.87;3.57;;;15.90;99.90;;;;;;5120600;27;20207;-85
2022/07/12 00:32:19;;;;;;;6.07;4.20;;;15.90;99.90;;;;;;5128236;27;20203;-85
2022/07/12 00:34:46;;;;;;;4.23;3.83;;;15.80;99.90;;;;;;5120722;27;20215;-85
2022/07/12 00:37:13;;;;;;;5.17;4.67;;;15.80;99.90;;;;;;5128969;27;20226;-84
2022/07/12 00:39:40;;;;;;;4.80;4.20;;;15.70;99.90;;;;;;5122031;27;20603;-85
2022/07/12 00:42:10;;;;;;;5.87;4.57;;;15.70;99.90;;;;;;5106692;27;20595;-85
2022/07/12 00:44:37;;;;;;;6.00;4.30;;;15.60;99.90;;;;;;5120424;27;20233;-86
2022/07/12 00:47:06;;;;;;;6.10;4.37;;;15.60;99.90;;;;;;5100314;27;20206;-85
2022/07/12 00:49:33;;;;;;;4.80;4.30;;;15.50;99.90;;;;;;5101589;28;20230;-86
2022/07/12 00:52:00;;;;;;;7.10;4.47;;;15.50;99.90;;;;;;5105385;27;20209;-85
2022/07/12 00:54:28;;;;;;;5.57;5.03;;;15.50;99.90;;;;;;5125535;27;20233;-85
2022/07/12 00:56:57;;;;;;;5.30;4.80;;;15.40;99.90;;;;;;5125845;27;20330;-87
2022/07/12 00:59:24;;;;;;;4.60;4.20;;;15.40;99.90;;;;;;5147118;27;20220;-85
2022/07/12 01:01:51;;;;;;;4.70;4.30;;;15.40;99.90;;;;;;5145300;27;20195;-86
2022/07/12 01:04:18;;;;;;;3.40;2.93;;;15.40;99.90;;;;;;5132444;27;20313;-86
2022/07/12 01:06:45;;;;;;;2.77;2.57;;;15.40;99.90;;;;;;5127463;27;20225;-85
2022/07/12 01:09:13;;;;;;;3.63;2.80;;;15.30;99.90;;;;;;5150627;27;20206;-86
2022/07/12 01:11:40;;;;;;;3.23;2.57;;;15.30;99.90;;;;;;5115738;27;20274;-86
2022/07/12 01:14:07;;;;;;;3.33;2.83;;;15.20;99.90;;;;;;5125509;27;20201;-86
2022/07/12 01:16:34;;;;;;;2.67;2.47;;;15.20;99.90;;;;;;5124299;27;20503;-84
2022/07/12 01:19:06;;;;;;;3.83;2.07;;;15.20;99.90;;;;;;5124675;27;20639;-86
2022/07/12 01:21:37;;;;;;;2.47;2.20;;;15.10;99.90;;;;;;5130630;27;20215;-86
2022/07/12 01:24:09;;;;;;;3.40;2.63;;;15.10;99.90;;;;;;5131531;27;20206;-86
2022/07/12 01:26:37;;;;;;;4.40;2.40;;;15.00;99.90;;;;;;5128326;28;20240;-86
2022/07/12 01:29:08;;;;;;;3.90;2.50;;;15.00;99.90;;;;;;5116618;27;20195;-86
2022/07/12 01:31:37;;;;;;;2.10;1.90;;;14.90;99.90;;;;;;5111290;27;20241;-86
2022/07/12 01:34:13;;;;;;;2.50;2.20;;;15.00;99.90;;;;;;5102786;27;20206;-85
2022/07/12 01:36:48;;;;;;;2.30;2.10;;;14.90;99.90;;;;;;5129421;27;20210;-84
2022/07/12 01:39:15;;;;;;;2.00;1.90;;;14.80;99.90;;;;;;5124548;27;20604;-85
2022/07/12 01:41:42;;;;;;;2.30;2.10;;;14.80;99.90;;;;;;5108600;28;20203;-85
2022/07/12 01:44:11;;;;;;;2.17;1.97;;;14.80;99.90;;;;;;5109953;27;20231;-85
2022/07/12 01:46:38;;;;;;;2.30;2.10;;;14.80;99.90;;;;;;5121018;27;20321;-85
2022/07/12 01:49:05;;;;;;;2.20;1.83;;;14.70;99.90;;;;;;5111361;27;20940;-84
2022/07/12 01:51:39;;;;;;;2.40;2.20;;;14.70;99.90;;;;;;5124117;27;20229;-86
2022/07/12 01:54:06;;;;;;;2.00;1.80;;;14.70;99.90;;;;;;5104314;27;20205;-85
2022/07/12 01:56:35;;;;;;;3.33;2.00;;;14.70;99.90;;;;;;5120535;27;20194;-85
2022/07/12 01:59:02;;;;;;;5.53;2.80;;;14.60;99.90;;;;;;5106319;27;20244;-86
2022/07/12 02:01:31;;;;;;;4.97;2.90;;;14.60;99.90;;;;;;5113123;27;20198;-85
2022/07/12 02:04:02;;;;;;;2.50;2.30;;;14.50;99.90;;;;;;5107505;27;20218;-85
2022/07/12 02:06:30;;;;;;;4.43;2.70;;;14.60;99.90;;;;;;5109223;27;20293;-86
2022/07/12 02:08:57;;;;;;;2.70;2.50;;;14.50;99.90;;;;;;5106041;27;20205;-85
2022/07/12 02:11:27;;;;;;;5.33;2.60;;;14.50;99.90;;;;;;5108849;27;20922;-85
2022/07/12 02:13:54;;;;;;;4.73;2.87;;;14.40;99.90;;;;;;5113251;28;20195;-86
2022/07/12 02:16:24;;;;;;;4.37;2.63;;;14.40;99.90;;;;;;5125712;27;20274;-86
2022/07/12 02:18:51;;;;;;;2.93;2.00;;;14.40;99.90;;;;;;5136541;27;20267;-86
2022/07/12 02:21:20;;;;;;;3.10;2.33;;;14.10;99.90;;;;;;5130340;27;20202;-86
2022/07/12 02:23:49;;;;;;;3.10;2.80;;;14.30;99.90;;;;;;5128713;27;20225;-86
2022/07/12 02:26:16;;;;;;;2.60;2.40;;;14.20;99.90;;;;;;5124003;27;20198;-85
2022/07/12 02:28:44;;;;;;;3.50;2.30;;;14.20;99.90;;;;;;5116682;28;20560;-87
2022/07/12 02:31:11;;;;;;;3.40;2.47;;;14.10;99.90;;;;;;5129281;27;20217;-89
2022/07/12 02:33:47;;;;;;;2.73;2.50;;;14.00;99.90;;;;;;5116054;28;20590;-85
2022/07/12 02:36:21;;;;;;;2.70;2.50;;;14.00;99.90;;;;;;5121534;28;20198;-85
2022/07/12 02:38:55;;;;;;;4.30;2.93;;;13.90;99.90;;;;;;5147703;28;20229;-87
2022/07/12 02:41:24;;;;;;;4.47;3.73;;;13.90;99.90;;;;;;5138206;27;20305;-86
2022/07/12 02:44:05;;;;;;;5.57;3.60;;;13.90;99.90;;;;;;5113089;28;20652;-87
2022/07/12 02:46:32;;;;;;;5.50;4.03;;;13.90;99.90;;;;;;5112045;28;20206;-84
2022/07/12 02:49:05;;;;;;;4.43;3.50;;;13.90;99.90;;;;;;5110075;28;20198;-87
2022/07/12 02:51:35;;;;;;;4.97;3.40;;;13.90;99.90;;;;;;5113403;27;20283;-86
2022/07/12 02:54:02;;;;;;;3.17;2.90;;;13.90;99.90;;;;;;5128742;27;20202;-86
2022/07/12 02:56:29;;;;;;;3.30;3.00;;;13.90;99.90;;;;;;5130729;27;20218;-87
2022/07/12 02:58:56;;;;;;;3.17;2.80;;;13.90;99.90;;;;;;5140203;27;20222;-87
2022/07/12 03:01:25;;;;;;;4.63;3.30;;;14.00;99.90;;;;;;5139236;27;20188;-86
2022/07/12 03:04:05;;;;;;;4.90;3.17;;;13.90;99.90;;;;;;5132347;27;20218;-85
2022/07/12 03:06:32;;;;;;;3.73;3.20;;;13.90;99.90;;;;;;5130600;27;20202;-86
2022/07/12 03:09:06;;;;;;;4.10;3.50;;;13.80;99.90;;;;;;5137039;27;20644;-85
2022/07/12 03:11:36;;;;;;;5.37;4.00;;;13.90;99.90;;;;;;5141194;27;20627;-85
2022/07/12 03:14:03;;;;;;;5.10;4.40;;;13.70;99.90;;;;;;5103596;28;20771;-85
2022/07/12 03:16:31;;;;;;;4.30;3.07;;;13.90;99.90;;;;;;5135224;27;20520;-84
2022/07/12 03:18:58;;;;;;;3.67;3.37;;;13.70;99.90;;;;;;5134374;27;20230;-85
2022/07/12 03:21:25;;;;;;;3.90;3.50;;;13.80;99.90;;;;;;5135128;27;20962;-87
2022/07/12 03:23:52;;;;;;;3.00;2.70;;;13.80;99.90;;;;;;5118001;27;20199;-86
2022/07/12 03:26:22;;;;;;;3.97;2.90;;;13.90;99.90;;;;;;5112860;27;20251;-86
2022/07/12 03:28:50;;;;;;;3.13;2.83;;;13.80;99.90;;;;;;5115645;27;20248;-85
2022/07/12 03:31:17;;;;;;;3.10;2.70;;;13.80;99.90;;;;;;5112548;27;20275;-86
2022/07/12 03:33:44;;;;;;;2.80;2.37;;;13.70;99.90;;;;;;5139361;27;20211;-85
2022/07/12 03:36:13;;;;;;;2.50;2.30;;;13.70;99.90;;;;;;5136443;27;20202;-84
2022/07/12 03:38:40;;;;;;;4.07;2.70;;;13.70;99.90;;;;;;5115165;27;20231;-86
2022/07/12 03:41:08;;;;;;;2.20;2.10;;;13.60;99.90;;;;;;5121218;27;20245;-85
2022/07/12 03:43:38;;;;;;;3.47;2.83;;;13.60;99.90;;;;;;5109160;27;20749;-85
2022/07/12 03:46:05;;;;;;;6.90;3.60;;;13.50;99.90;;;;;;5112720;27;20190;-88
2022/07/12 03:48:32;;;;;;;9.67;4.23;;;13.50;99.90;;;;;;5130947;27;20222;-83
2022/07/12 03:50:59;;;;;;;17.10;4.40;;;13.60;99.90;;;;;;5115355;27;20212;-85
2022/07/12 03:53:26;;;;;;;19.83;4.70;;;13.40;99.90;;;;;;5135271;27;20743;-84
2022/07/12 03:55:53;;;;;;;32.83;4.57;;;13.40;99.90;;;;;;5115833;27;20346;-86
2022/07/12 03:58:20;;;;;;;30.10;4.60;;;13.50;99.90;;;;;;5115912;27;20353;-84
2022/07/12 04:00:48;;;;;;;18.17;3.87;;;13.40;99.90;;;;;;5114556;27;20206;-86
2022/07/12 04:03:16;;;;;;;11.87;4.20;;;13.50;99.90;;;;;;5131852;27;20215;-86
2022/07/12 04:05:43;;;;;;;15.57;5.07;;;13.50;99.90;;;;;;5109937;27;20237;-84
2022/07/12 04:08:10;;;;;;;29.33;4.90;;;13.50;99.90;;;;;;5109449;27;20239;-85
2022/07/12 04:10:37;;;;;;;22.47;4.63;;;13.50;99.90;;;;;;5107865;27;20241;-85
2022/07/12 04:13:05;;;;;;;9.63;4.93;;;13.60;99.90;;;;;;5111109;27;20194;-85
2022/07/12 04:15:32;;;;;;;26.17;6.40;;;13.60;99.90;;;;;;5126949;27;20203;-85
2022/07/12 04:18:00;;;;;;;20.67;6.03;;;13.70;99.90;;;;;;5111767;27;20284;-85
2022/07/12 04:20:27;;;;;;;26.90;7.57;;;13.80;99.90;;;;;;5133757;27;20259;-85
2022/07/12 04:22:55;;;;;;;20.20;6.07;;;13.90;99.90;;;;;;5110518;27;20202;-85
2022/07/12 04:25:25;;;;;;;19.23;6.87;;;13.90;99.90;;;;;;5117709;27;20202;-85
2022/07/12 04:27:53;;;;;;;28.20;6.53;;;14.00;99.90;;;;;;5132237;27;20206;-85
2022/07/12 04:30:21;;;;;;;20.73;6.60;;;14.00;99.90;;;;;;5127818;27;20199;-84
2022/07/12 04:32:48;;;;;;;29.40;7.43;;;14.20;99.90;;;;;;5114907;27;20210;-84
2022/07/12 04:35:16;;;;;;;48.73;8.77;;;14.30;99.90;;;;;;5115659;27;20202;-85
2022/07/12 04:37:43;;;;;;;23.97;7.90;;;14.30;99.90;;;;;;5108677;27;20211;-85
2022/07/12 04:40:11;;;;;;;18.03;6.17;;;14.40;99.90;;;;;;5129545;27;20230;-85
2022/07/12 04:42:40;;;;;;;17.47;6.40;;;14.40;99.90;;;;;;5130051;27;20207;-85
2022/07/12 04:45:08;;;;;;;18.10;7.33;;;14.60;99.90;;;;;;5112591;27;20215;-85
2022/07/12 04:47:36;;;;;;;39.27;7.50;;;14.60;99.90;;;;;;5136086;27;20205;-84
2022/07/12 04:50:07;;;;;;;41.67;6.50;;;14.80;99.90;;;;;;5134081;27;20272;-84
2022/07/12 04:52:35;;;;;;;47.20;8.00;;;14.80;99.90;;;;;;5129571;27;20202;-86
2022/07/12 04:55:06;;;;;;;15.07;6.50;;;14.90;99.90;;;;;;5127297;27;20195;-86
2022/07/12 04:57:34;;;;;;;11.20;6.30;;;14.90;99.90;;;;;;5130047;27;20577;-85
2022/07/12 05:00:03;;;;;;;9.13;5.63;;;15.10;99.90;;;;;;5114028;27;20234;-85
2022/07/12 05:02:33;;;;;;;13.70;6.40;;;15.10;99.90;;;;;;5127353;27;20202;-85
2022/07/12 05:05:02;;;;;;;10.30;5.50;;;15.30;99.90;;;;;;5118702;27;20206;-84
2022/07/12 05:07:30;;;;;;;10.13;5.87;;;15.40;99.90;;;;;;5133160;27;20262;-84
2022/07/12 05:09:58;;;;;;;6.97;5.40;;;15.40;99.90;;;;;;5107576;27;20195;-85
2022/07/12 05:12:25;;;;;;;7.80;5.63;;;15.50;99.90;;;;;;5117263;27;20195;-84
2022/07/12 05:14:55;;;;;;;8.27;5.17;;;15.60;99.90;;;;;;5118596;27;20199;-84
2022/07/12 05:17:28;;;;;;;5.53;4.60;;;15.50;99.90;;;;;;5116947;27;20661;-84
2022/07/12 05:19:55;;;;;;;6.43;4.90;;;15.60;99.90;;;;;;5120084;27;20230;-85
2022/07/12 05:22:22;;;;;;;7.30;4.77;;;15.70;99.90;;;;;;5103870;27;20202;-84
2022/07/12 05:24:49;;;;;;;7.27;5.67;;;15.80;99.90;;;;;;5101148;27;20209;-84
2022/07/12 05:27:16;;;;;;;6.53;5.20;;;16.00;99.90;;;;;;5095218;27;20211;-84
2022/07/12 05:29:43;;;;;;;6.18;5.00;;;16.20;99.90;;;;;;5118206;27;20231;-84
2022/07/12 05:32:12;;;;;;;6.28;5.50;;;16.50;99.90;;;;;;5116135;27;20226;-86
2022/07/12 05:34:41;;;;;;;9.00;5.60;;;16.90;99.90;;;;;;5102167;27;20239;-86
2022/07/12 05:37:08;;;;;;;6.45;4.88;;;17.00;99.90;;;;;;5120286;27;20199;-85
2022/07/12 05:39:35;;;;;;;7.05;5.40;;;17.20;99.90;;;;;;5110665;27;20215;-85
2022/07/12 05:42:10;;;;;;;6.72;4.97;;;17.30;99.90;;;;;;5130948;27;20211;-85
2022/07/12 05:44:40;;;;;;;7.85;5.15;;;17.40;99.90;;;;;;5108691;27;20214;-85
2022/07/12 05:47:08;;;;;;;8.10;4.97;;;17.60;99.90;;;;;;5119340;27;20199;-85
2022/07/12 05:49:37;;;;;;;8.00;5.07;;;17.70;99.90;;;;;;5115076;27;20222;-84
2022/07/12 05:54:53;;;;;;;5.93;4.90;;;18.00;99.90;;;;;;5120434;27;20278;-84
2022/07/12 05:57:20;;;;;;;7.40;5.55;;;18.50;99.90;;;;;;5100419;27;20195;-84
2022/07/12 05:59:47;;;;;;;6.88;5.00;;;19.30;99.90;;;;;;5104705;27;20275;-85
2022/07/12 06:02:17;;;;;;;5.32;4.82;;;20.40;99.90;;;;;;5123137;27;20280;-85
2022/07/12 06:04:45;;;;;;;8.23;5.00;;;21.80;99.90;;;;;;5103156;27;20701;-84
2022/07/12 06:07:17;;;;;;;8.35;4.25;;;23.20;99.90;;;;;;5122108;27;20202;-83
2022/07/12 06:09:45;;;;;;;5.28;4.00;;;24.50;99.90;;;;;;5096208;27;20207;-86
2022/07/12 06:12:12;;;;;;;6.80;4.10;;;25.40;99.90;;;;;;5101687;27;20785;-84
2022/07/12 06:14:41;;;;;;;5.43;4.20;;;26.40;99.90;;;;;;5116426;27;20203;-86
2022/07/12 06:17:08;;;;;;;4.75;4.28;;;27.30;99.90;;;;;;5124465;27;20198;-86
2022/07/12 06:19:39;;;;;;;5.53;4.20;;;27.90;99.90;;;;;;5142728;27;20237;-86
2022/07/12 06:22:06;;;;;;;5.38;4.35;;;28.30;99.90;;;;;;5135591;27;20202;-84
2022/07/12 06:24:36;;;;;;;8.07;4.32;;;28.60;99.90;;;;;;5130177;27;20592;-86
2022/07/12 06:27:03;;;;;;;5.10;4.53;;;28.90;99.90;;;;;;5114623;27;20316;-84
2022/07/12 06:29:34;;;;;;;6.25;4.28;;;29.10;99.90;;;;;;5129410;27;20209;-86
2022/07/12 06:32:08;;;;;;;5.70;4.32;;;29.20;99.90;;;;;;5115846;28;20202;-87
2022/07/12 06:34:37;;;;;;;4.85;4.20;;;29.30;99.90;;;;;;5113386;28;21361;-86
2022/07/12 06:37:08;;;;;;;6.68;4.40;;;29.50;99.90;;;;;;5125819;27;20221;-84
2022/07/12 06:39:47;;;;;;;5.45;4.70;;;29.10;99.90;;;;;;5142658;27;20214;-87
2022/07/12 06:42:16;;;;;;;5.68;5.10;;;28.70;99.90;;;;;;5153433;27;20203;-85
2022/07/12 06:44:43;;;;;;;5.68;4.95;;;28.20;99.90;;;;;;5127198;28;20214;-87
2022/07/12 06:47:11;;;;;;;7.75;4.93;;;27.80;99.90;;;;;;5126198;28;20190;-89
2022/07/12 06:49:47;;;;;;;6.95;5.43;;;27.60;99.90;;;;;;5155480;27;20719;-87
2022/07/12 06:52:45;;;;;;;7.80;5.57;;;27.50;99.90;;;;;;5152351;28;20202;-88
2022/07/12 06:55:16;;;;;;;8.50;5.70;;;27.50;99.90;;;;;;5147425;28;20257;-86
2022/07/12 06:57:44;;;;;;;7.03;5.40;;;27.80;99.90;;;;;;5138406;28;20219;-89
2022/07/12 07:00:14;;;;;;;5.80;5.30;;;28.50;99.90;;;;;;5119531;28;20222;-88
2022/07/12 07:02:42;;;;;;;6.93;5.00;;;29.10;99.90;;;;;;5110987;28;20206;-84
2022/07/12 07:05:11;;;;;;;5.28;4.78;;;29.80;99.90;;;;;;5133109;27;20267;-84
2022/07/12 07:07:40;;;;;;;8.23;5.07;;;30.20;99.90;;;;;;5131405;28;20217;-86
2022/07/12 07:10:21;;;;;;;6.18;4.43;;;30.60;99.90;;;;;;5112214;28;20189;-89
2022/07/12 07:12:50;;;;;;;7.10;4.38;;;30.80;99.90;;;;;;5115291;28;20262;-89
2022/07/12 07:15:32;;;;;;;4.75;4.35;;;31.30;99.90;;;;;;5120820;28;20207;-89
2022/07/12 07:18:03;;;;;;;4.50;4.10;;;31.80;99.90;;;;;;5109941;28;20223;-88
2022/07/12 07:20:31;;;;;;;4.75;4.28;;;32.20;99.90;;;;;;5108908;28;20224;-88
2022/07/12 07:22:59;;;;;;;4.35;3.53;;;32.60;99.90;;;;;;5112377;28;20202;-89
2022/07/12 07:25:26;;;;;;;4.07;3.45;;;32.90;99.90;;;;;;5109844;28;20204;-88
2022/07/12 07:27:55;;;;;;;3.47;3.17;;;33.40;99.90;;;;;;5111908;28;20925;-89
2022/07/12 07:33:17;;;;;;;5.60;3.30;;;33.70;99.90;;;;;;5110841;28;20245;-88
2022/07/12 07:35:49;;;;;;;3.10;2.90;;;34.00;99.80;;;;;;5112542;28;20737;-87
2022/07/12 07:38:49;;;;;;;3.33;3.03;;;34.30;99.10;;;;;;5105515;28;20658;-88
2022/07/12 07:41:21;;;;;;;4.70;3.70;;;34.20;98.10;;;;;;5116472;27;20229;-86
2022/07/12 07:43:57;;;;;;;3.63;3.30;;;33.80;97.10;;;;;;5123206;27;21004;-86
2022/07/12 07:46:46;;;;;;;3.53;3.20;;;33.40;96.60;;;;;;5111881;28;20959;-87
2022/07/12 07:49:14;;;;;;;3.55;3.25;;;33.00;97.30;;;;;;5114740;28;20693;-86
2022/07/12 07:51:42;;;;;;;3.70;3.08;;;33.00;97.40;;;;;;5115376;27;20210;-88
2022/07/12 07:54:10;;;;;;;3.15;2.85;;;32.90;97.30;;;;;;5109892;28;20285;-86
2022/07/12 07:56:37;;;;;;;4.63;3.00;;;32.70;97.30;;;;;;5110674;28;20199;-87
2022/07/12 07:59:12;;;;;;;3.17;2.97;;;32.60;97.50;;;;;;5116583;28;20655;-88
2022/07/12 08:01:58;;;;;;;5.57;3.13;;;32.50;97.30;;;;;;5118620;28;20202;-87
2022/07/12 08:04:28;;;;;;;3.05;2.75;;;32.50;97.30;;;;;;5116522;28;20211;-87
2022/07/12 08:07:04;;;;;;;3.15;2.47;;;32.40;97.70;;;;;;5110067;28;20221;-87
2022/07/12 08:09:31;;;;;;;3.17;2.42;;;32.60;97.30;;;;;;5105217;28;20203;-88
2022/07/12 08:11:58;;;;;;;3.13;2.40;;;32.30;97.00;;;;;;5110529;27;20745;-87
2022/07/12 08:14:25;;;;;;;3.00;2.30;;;32.10;97.10;;;;;;5107683;27;20198;-85
2022/07/12 08:16:53;;;;;;;2.90;2.60;;;31.80;97.40;;;;;;5102043;28;20777;-87
2022/07/12 08:19:22;;;;;;;3.47;2.50;;;31.60;97.50;;;;;;5131277;27;20269;-86
2022/07/12 08:21:50;;;;;;;2.97;2.38;;;31.40;97.80;;;;;;5112607;27;20202;-86
2022/07/12 08:24:20;;;;;;;3.22;2.47;;;31.20;97.90;;;;;;5108063;27;20210;-87
2022/07/12 08:26:50;;;;;;;2.67;2.47;;;31.10;98.20;;;;;;5124020;27;20199;-87
2022/07/12 08:29:22;;;;;;;2.53;2.33;;;31.10;98.50;;;;;;5108949;27;20207;-88
2022/07/12 08:31:49;;;;;;;3.28;2.55;;;31.40;98.30;;;;;;5108614;27;20210;-88
2022/07/12 08:34:19;;;;;;;2.58;2.38;;;31.40;98.40;;;;;;5122942;27;21088;-92
2022/07/12 08:37:10;;;;;;;3.67;2.50;;;31.50;98.40;;;;;;5115095;27;20293;-88
2022/07/12 08:39:40;;;;;;;2.83;2.28;;;31.40;98.00;;;;;;5112337;27;20230;-90
2022/07/12 08:42:16;;;;;;;3.35;1.88;;;31.40;98.20;;;;;;5114794;27;20215;-88
2022/07/12 08:44:57;;;;;;;2.80;2.30;;;31.00;98.20;;;;;;5103943;27;20271;-89
2022/07/12 08:47:30;;;;;;;2.45;2.10;;;30.80;98.10;;;;;;5128530;27;20195;-88
2022/07/12 08:50:18;;;;;;;2.47;2.17;;;30.60;98.40;;;;;;5108304;27;20264;-86
2022/07/12 08:52:59;;;;;;;2.38;2.17;;;30.50;99.30;;;;;;5115161;27;20251;-87
2022/07/12 08:55:28;;;;;;;3.10;1.77;;;30.50;99.70;;;;;;5113306;27;20295;-87
2022/07/12 08:58:07;;;;;;;1.40;1.30;;;30.80;99.50;;;;;;5114295;27;20714;-86
2022/07/12 09:00:42;;;;;;;2.95;1.42;;;31.30;98.20;;;;;;5108213;27;20226;-85
2022/07/12 09:03:15;;;;;;;1.38;1.27;;;31.50;96.90;;;;;;5107697;27;20225;-84
2022/07/12 09:05:54;;;;;;;1.58;1.00;;;31.50;97.00;;;;;;5126417;27;20246;-85
2022/07/12 09:08:30;;;;;;;2.58;1.20;;;31.70;95.90;;;;;;5116918;27;20766;-84
2022/07/12 09:11:10;;;;;;;1.65;1.13;;;31.80;95.50;;;;;;5124609;27;20266;-88
2022/07/12 09:13:58;;;;;;;1.77;0.93;;;32.00;95.30;;;;;;5101296;27;20194;-88
2022/07/12 09:16:26;;;;;;;1.65;1.00;;;32.40;94.30;;;;;;5109939;27;20279;-84
2022/07/12 09:19:14;;;;;;;1.48;1.00;;;32.50;94.20;;;;;;5125757;27;20305;-86
2022/07/12 09:21:53;;;;;;;1.02;0.80;;;32.40;93.60;;;;;;5120817;27;20194;-85
2022/07/12 09:24:26;;;;;;;1.88;0.63;;;32.60;93.40;;;;;;5120342;27;20566;-85
2022/07/12 09:27:00;;;;;;;1.13;0.95;;;32.70;92.80;;;;;;5125629;27;20304;-84
2022/07/12 09:29:27;;;;;;;0.68;0.68;;;32.80;92.20;;;;;;5118872;27;20318;-85
2022/07/12 09:37:26;;;;;;;0.85;0.80;;;32.70;92.10;;;;;;5122592;27;20210;-85
2022/07/12 09:39:54;;;;;;;1.90;1.08;;;32.60;92.50;;;;;;5117232;27;20222;-84
2022/07/12 09:42:24;;;;;;;2.85;0.77;;;32.50;92.30;;;;;;5117512;27;20206;-90
2022/07/12 09:44:57;;;;;;;0.80;0.80;;;32.60;91.40;;;;;;5119410;27;21550;-88
2022/07/12 09:47:27;;;;;;;0.70;0.70;;;32.70;91.70;;;;;;5107626;27;20673;-90
2022/07/12 09:49:56;;;;;;;1.13;0.70;;;32.60;91.80;;;;;;5119366;27;20217;-87
2022/07/12 09:52:26;;;;;;;1.20;1.08;;;32.60;92.30;;;;;;5118329;27;20190;-86
2022/07/12 09:54:55;;;;;;;1.05;0.80;;;32.60;92.40;;;;;;5120121;27;20297;-87
2022/07/12 09:57:27;;;;;;;1.65;0.82;;;32.60;92.30;;;;;;5126945;27;20266;-87
2022/07/12 09:59:56;;;;;;;0.90;0.90;;;32.60;92.40;;;;;;5113581;27;20274;-87
2022/07/12 10:02:24;;;;;;;0.88;0.85;;;32.50;92.50;;;;;;5125813;27;20242;-85
2022/07/12 10:04:55;;;;;;;2.13;0.77;;;32.60;92.30;;;;;;5120497;27;20210;-88
2022/07/12 10:07:22;;;;;;;0.73;0.73;;;32.60;91.70;;;;;;5127674;27;20207;-85
2022/07/12 10:09:53;;;;;;;3.22;0.98;;;32.60;91.60;;;;;;5142723;27;20218;-86
2022/07/12 10:12:40;;;;;;;1.55;0.75;;;32.60;91.00;;;;;;5136006;27;20195;-87
2022/07/12 10:15:28;;;;;;;0.90;0.80;;;32.40;91.10;;;;;;5130324;27;20213;-87
2022/07/12 10:18:00;;;;;;;2.22;0.73;;;32.40;91.00;;;;;;5119325;27;20231;-85
2022/07/12 10:20:28;;;;;;;0.80;0.80;;;32.30;91.10;;;;;;5125420;27;20880;-84
2022/07/12 10:23:16;;;;;;;0.50;0.50;;;32.30;91.00;;;;;;5103785;27;20202;-86
2022/07/12 10:25:43;;;;;;;0.60;0.60;;;32.30;90.10;;;;;;5116346;27;20206;-85
2022/07/12 10:28:10;;;;;;;2.05;0.73;;;32.30;89.60;;;;;;5120148;27;20682;-84
2022/07/12 10:30:49;;;;;;;2.17;0.70;;;32.30;90.30;;;;;;5125143;27;20199;-88
2022/07/12 10:33:20;;;;;;;1.83;0.77;;;32.40;89.80;;;;;;5095405;28;20578;-83
2022/07/12 10:36:08;;;;;;;1.10;0.80;;;32.40;90.50;;;;;;5108055;28;20734;-85
2022/07/12 10:39:00;;;;;;;0.80;0.80;;;32.50;90.40;;;;;;5124331;27;20198;-85
2022/07/12 10:41:28;;;;;;;2.25;0.90;;;32.40;90.60;;;;;;5120453;27;20733;-84
2022/07/12 10:44:04;;;;;;;0.80;0.80;;;32.40;90.70;;;;;;5122486;27;20219;-85
2022/07/12 10:46:34;;;;;;;1.05;0.60;;;32.40;90.90;;;;;;5118710;27;20576;-86
2022/07/12 10:49:25;;;;;;;1.75;0.88;;;32.40;91.20;;;;;;5106723;28;20225;-85
2022/07/12 10:52:11;;;;;;;1.90;0.90;;;32.30;90.70;;;;;;5125245;27;20209;-84
2022/07/12 10:54:42;;;;;;;0.88;0.70;;;32.20;91.30;;;;;;5121697;27;20236;-84
2022/07/12 10:57:09;;;;;;;1.45;0.85;;;32.10;91.50;;;;;;5104864;28;20206;-84
2022/07/12 10:59:40;;;;;;;1.02;0.93;;;32.00;91.20;;;;;;5101929;28;20194;-85
2022/07/12 11:02:13;;;;;;;1.52;1.00;;;31.90;91.10;;;;;;5106932;28;20612;-88
2022/07/12 11:04:51;;;;;;;1.00;0.90;;;31.70;91.50;;;;;;5109222;28;20691;-85
2022/07/12 11:07:18;;;;;;;0.80;0.80;;;31.60;91.10;;;;;;5116589;28;20202;-85
2022/07/12 11:09:50;;;;;;;1.95;0.90;;;31.60;91.00;;;;;;5109672;27;20203;-84
2022/07/12 11:12:35;;;;;;;1.88;0.80;;;31.70;91.00;;;;;;5106713;28;20206;-87
2022/07/12 11:15:03;;;;;;;1.00;0.70;;;31.80;90.80;;;;;;5130973;27;20305;-86
2022/07/12 11:17:32;;;;;;;0.90;0.80;;;31.90;90.60;;;;;;5149105;27;20249;-87
2022/07/12 11:20:15;;;;;;;1.17;0.90;;;32.00;90.00;;;;;;5142817;27;20249;-85
2022/07/12 11:22:44;;;;;;;0.93;0.68;;;32.10;88.20;;;;;;5130315;27;20245;-86
2022/07/12 11:25:13;;;;;;;1.05;0.98;;;32.10;88.40;;;;;;5109880;27;20194;-86
2022/07/12 11:27:45;;;;;;;1.10;0.88;;;32.10;87.40;;;;;;5107701;27;20205;-87
2022/07/12 11:30:13;;;;;;;1.10;0.88;;;32.20;86.40;;;;;;5118749;27;20195;-86
2022/07/12 11:32:43;;;;;;;3.50;0.90;;;32.20;86.40;;;;;;5123730;27;20285;-85
2022/07/12 11:35:25;;;;;;;2.45;1.08;;;32.20;86.30;;;;;;5124007;27;20793;-89
2022/07/12 11:37:56;;;;;;;2.63;0.88;;;32.10;85.70;;;;;;5107009;27;20198;-85
2022/07/12 11:40:29;;;;;;;0.85;0.80;;;32.10;87.50;;;;;;5100737;27;20222;-83
2022/07/12 11:42:58;;;;;;;1.13;1.02;;;32.10;88.80;;;;;;5121560;27;20195;-84
2022/07/12 11:45:31;;;;;;;1.40;1.00;;;32.20;89.20;;;;;;5109603;27;20230;-85
2022/07/12 11:48:05;;;;;;;1.10;0.80;;;32.40;87.80;;;;;;5108701;27;20213;-85
2022/07/12 11:50:34;;;;;;;2.60;0.90;;;32.40;87.30;;;;;;5121795;27;20199;-85
2022/07/12 11:53:03;;;;;;;2.20;0.93;;;32.20;88.00;;;;;;5125366;27;20722;-86
2022/07/12 11:55:31;;;;;;;2.03;1.00;;;32.20;88.80;;;;;;5106088;28;20738;-85
2022/07/12 11:58:06;;;;;;;1.08;0.90;;;32.30;87.90;;;;;;5103068;27;20208;-88
2022/07/12 12:00:44;;;;;;;1.80;1.27;;;32.40;87.10;;;;;;5105713;27;20229;-84
2022/07/12 12:03:13;;;;;;;2.58;1.05;;;32.50;85.90;;;;;;5100040;27;20218;-86
2022/07/12 12:05:47;;;;;;;1.30;0.90;;;32.50;85.10;;;;;;5106476;27;20196;-84
2022/07/12 12:08:18;;;;;;;1.33;1.00;;;32.40;85.50;;;;;;5103456;27;20888;-84
2022/07/12 12:10:59;;;;;;;0.93;0.80;;;32.30;85.40;;;;;;5119344;27;20213;-85
2022/07/12 12:13:28;;;;;;;1.77;1.10;;;32.30;85.40;;;;;;5104769;27;20194;-84
2022/07/12 12:16:03;;;;;;;1.30;0.90;;;32.40;84.70;;;;;;5110029;27;20313;-86
2022/07/12 12:18:34;;;;;;;2.42;0.98;;;32.50;84.70;;;;;;5124062;27;20229;-86
2022/07/12 12:21:13;;;;;;;2.75;1.48;;;32.60;85.10;;;;;;5122112;27;20693;-83
2022/07/12 12:23:42;;;;;;;2.45;1.35;;;32.70;85.20;;;;;;5118429;27;20974;-84
2022/07/12 12:26:15;;;;;;;1.73;1.33;;;32.70;86.00;;;;;;5112635;27;20264;-83
2022/07/12 12:28:48;;;;;;;1.42;1.10;;;32.70;86.20;;;;;;5105281;27;21250;-84
2022/07/12 12:31:18;;;;;;;2.20;1.20;;;32.70;86.30;;;;;;5102161;27;20681;-85
2022/07/12 12:34:12;;;;;;;1.58;1.10;;;32.70;85.70;;;;;;5116141;27;20222;-87
2022/07/12 12:36:40;;;;;;;1.50;1.40;;;32.80;85.70;;;;;;5106374;27;20213;-83
2022/07/12 12:39:10;;;;;;;1.85;1.38;;;32.90;86.20;;;;;;5100592;27;20243;-84
2022/07/12 12:41:41;;;;;;;1.40;1.30;;;33.00;85.80;;;;;;5119702;27;20268;-86
2022/07/12 12:44:16;;;;;;;1.75;1.13;;;33.10;86.10;;;;;;5121123;27;20218;-86
2022/07/12 12:49:45;;;;;;;1.83;1.17;;;33.20;83.30;;;;;;5074256;27;20635;-84
2022/07/12 12:52:20;;;;;;;3.00;1.23;;;33.20;83.10;;;;;;5101532;27;20307;-84
2022/07/12 12:54:48;;;;;;;2.20;1.15;;;33.10;83.00;;;;;;5118244;27;20287;-84
2022/07/12 12:57:15;;;;;;;1.38;1.25;;;33.00;82.70;;;;;;5117984;27;20202;-85
2022/07/12 12:59:42;;;;;;;1.10;1.10;;;33.00;83.10;;;;;;5118430;27;20209;-84
2022/07/12 13:02:12;;;;;;;1.88;1.23;;;33.10;82.60;;;;;;5122812;27;20270;-84
2022/07/12 13:04:39;;;;;;;1.88;1.02;;;33.20;81.80;;;;;;5121741;27;20321;-85
2022/07/12 13:07:08;;;;;;;1.08;0.90;;;33.30;81.70;;;;;;5103251;27;20212;-83
2022/07/12 13:09:40;;;;;;;1.95;1.25;;;33.20;81.50;;;;;;5107670;27;20287;-85
2022/07/12 13:12:07;;;;;;;4.50;2.10;;;33.20;80.40;;;;;;5106070;27;20186;-85
2022/07/12 13:14:35;;;;;;;2.95;2.63;;;33.10;80.10;;;;;;5120730;27;20194;-85
2022/07/12 13:17:05;;;;;;;3.15;2.75;;;32.90;80.50;;;;;;5130435;27;20207;-84